Stunt Ranch Reserve, Santa Monica Mtns, California Weather observations

Data are for 10 minute period ending at time listed.
 Day   Time   Solar   Ave.   Ave.  Ave.  Vector  Max.   Baro.   Total    
  of    of     Rad.   Air    Rel.  Wind   Wind   Wind  Press.  Precip.   
Year   Day            Temp.  Hum.  Speed  Dir.   Gust                    
2016   (PST)  Kw/m2    F      %     mph   deg.    mph    mb.     in.     
-------------------------------------------------------------------------
 207    1:10   0.00   70.8    30    1.0   156     2.0   967.5    0.00 
 207    1:20   0.00   70.8    32    1.4   269     2.3   967.2    0.00 
 207    1:30   0.00   70.1    35    1.5   280     2.6   967.5    0.00 
 207    1:40   0.00   70.3    32    1.6   275     3.1   967.5    0.00 
 207    1:50   0.00   69.9    36    1.1   294     2.6   967.5    0.00 
 207    2:00   0.00   69.2    40    1.3   295     2.1   967.5    0.00 
 207    2:10   0.00   67.9    44    1.7   285     2.9   967.5    0.00 
 207    2:20   0.00   68.0    49    0.8   335     3.2   967.5    0.00 
 207    2:30   0.00   68.3    50    1.3    64     4.0   967.5    0.00 
 207    2:40   0.00   68.4    55    0.6    93     2.0   967.5    0.00 
 207    2:50   0.00   68.3    52    0.9    93     2.2   967.5    0.00 
 207    3:00   0.00   68.2    51    1.6   353     4.8   967.5    0.00 
 207    3:10   0.00   68.0    51    1.0   240     3.0   967.5    0.00 
 207    3:20   0.00   67.9    51    0.7   267     2.2   967.5    0.00 
 207    3:30   0.00   67.4    53    0.7   302     2.5   967.5    0.00 
 207    3:40   0.00   67.0    56    0.5   332     2.2   967.5    0.00 
 207    3:50   0.00   66.9    56    0.3   239     2.0   967.5    0.00 
 207    4:00   0.00   66.9    56    0.4   343     1.5   967.8    0.00 
 207    4:10   0.00   66.3    57    0.4    12     1.5   967.8    0.00 
 207    4:20   0.00   65.9    55    0.4   171     1.5   967.8    0.00 
 207    4:30   0.00   65.9    53    0.8   265     1.3   967.8    0.00 
 207    4:40   0.00   65.6    53    0.4   295     1.1   967.8    0.00 
 207    4:50   0.00   65.1    57    0.3   296     1.7   967.8    0.00 
 207    5:00   0.00   65.5    47    1.1   138     2.2   967.8    0.00 
 207    5:10   0.00   66.3    49    0.1   181     0.9   967.8    0.00 
 207    5:20   0.01   66.3    50    0.8   252     1.6   967.8    0.00 
 207    5:30   0.01   66.2    52    0.3   314     1.2   968.2    0.00 
 207    5:40   0.01   66.5    51    1.0   275     1.8   968.2    0.00 
 207    5:50   0.02   66.1    55    0.4   274     1.5   968.2    0.00 
 207    6:00   0.07   66.3    49    0.2   154     1.3   968.2    0.00 
 207    6:10   0.13   69.2    62    0.6   296     1.9   968.5    0.00 
 207    6:20   0.16   71.5    59    0.4   259     1.2   968.5    0.00 
 207    6:30   0.20   73.4    52    0.7     6     2.2   968.8    0.00 
 207    6:40   0.23   74.3    52    0.9   336     2.3   968.8    0.00 
 207    6:50   0.26   75.8    49    1.3   288     3.3   968.8    0.00 
 207    7:00   0.30   76.9    48    3.5   285     5.3   968.8    0.00 
 207    7:10   0.33   77.0    47    3.3   289     5.3   968.8    0.00 
 207    7:20   0.36   77.6    47    3.3   285     5.6   968.8    0.00 
 207    7:30   0.40   78.3    44    2.8   283     6.3   968.8    0.00 
 207    7:40   0.43   79.1    41    3.2   326     6.5   968.8    0.00 
 207    7:50   0.47   81.0    31    4.9    26    10.6   968.8    0.00 
 207    8:00   0.50   82.8    24    7.2    68    13.1   968.8    0.00 
 207    8:10   0.53   83.0    24    8.2    53    13.2   969.2    0.00 
 207    8:20   0.56   84.1    22    7.3    45    12.1   969.2    0.00 
 207    8:30   0.59   84.7    22    4.8    23    10.7   969.2    0.00 
 207    8:40   0.62   85.7    23    6.3    40    12.8   969.2    0.00 
 207    8:50   0.65   85.4    23    6.5    40    14.0   969.2    0.00 
 207    9:00   0.68   86.8    20    4.0    10    12.0   969.2    0.00 
 207    9:10   0.70   88.1    17    2.2   275     6.1   969.5    0.00 
 207    9:20   0.73   88.8    17    2.7   201     8.2   969.5    0.00 
 207    9:30   0.75   88.4    17    3.4   179     8.3   969.9    0.00 
 207    9:40   0.78   89.2    18    4.0   167    11.2   969.9    0.00 
 207    9:50   0.80   89.4    20    4.4   165    11.5   969.9    0.00 
 207   10:00   0.82   89.1    20    5.4   159    11.6   969.5    0.00 
 207   10:10   0.83   90.2    19    4.0   169     7.7   969.5    0.00 
 207   10:20   0.85   90.3    20    3.8    96    13.1   969.5    0.00 
 207   10:30   0.87   90.6    18    7.6    30    14.9   969.5    0.00 
 207   10:40   0.88   92.8    15    7.6    60    14.8   969.5    0.00 
 207   10:50   0.90   92.5    15    6.3    51    14.1   969.5    0.00 
 207   11:00   0.90   93.1    14    7.6    37    14.2   969.5    0.00 
 207   11:10   0.92   93.3    14    5.2    27    13.2   969.5    0.00 
 207   11:20   0.93   94.9    18    4.4   160    11.5   969.5    0.00 
 207   11:30   0.93   92.6    22    7.1   160    16.7   969.5    0.00 
 207   11:40   0.93   91.1    22   10.1   153    16.4   969.5    0.00 
 207   11:50   0.93   91.3    20    8.3   143    14.0   969.5    0.00 
 207   12:00   0.93   91.7    18    8.0   144    14.0   969.2    0.00 
 207   12:10   0.93   92.4    17    8.0   140    14.1   969.2    0.00 
 207   12:20   0.93   92.5    17    7.8   149    12.1   969.2    0.00 
 207   12:30   0.93   93.4    16    4.8   180    10.5   968.8    0.00 
 207   12:40   0.93   95.0    16    3.5   169     9.3   968.8    0.00 
 207   12:50   0.92   97.1    17    2.2   284     5.6   968.5    0.00 
 207   13:00   0.87   99.5    16    3.8   320    10.8   968.5    0.00 
 207   13:10   0.90   99.4    17    4.7   282    10.1   968.5    0.00 
 207   13:20   0.89   99.7    15    4.5   298     9.5   968.2    0.00 
 207   13:30   0.87   99.3    15    3.4   288     8.0   968.2    0.00 
 207   13:40   0.86   99.8    14    4.1   305     9.5   967.8    0.00 
 207   13:50   0.85  100.8    13    4.0   294     9.0   967.8    0.00 
 207   14:00   0.83  101.8    13    3.1   289     7.8   967.5    0.00 
 207   14:10   0.81  102.9    13    3.2   294     9.7   967.5    0.00 
 207   14:20   0.79  102.9    13    4.0   290     8.7   967.2    0.00 
 207   14:30   0.77  102.7    13    3.6   293     8.8   967.2    0.00 
 207   14:40   0.74  103.3    13    2.9   293     7.7   966.8    0.00 
 207   14:50   0.72  103.4    15    3.4   297     8.4   966.8    0.00 
 207   15:00   0.69  101.7    16    3.9   300     9.6   966.8    0.00 
 207   15:10   0.66  100.5    16    3.2   302     9.4   966.5    0.00 
 207   15:20   0.63  100.1    15    3.6   313     7.4   966.5    0.00 
 207   15:30   0.60  100.4    15    2.3   296     7.4   966.5    0.00 
 207   15:40   0.57   99.9    15    4.0   315     9.4   966.5    0.00 
 207   15:50   0.54   98.6    16    3.0   302     7.9   966.1    0.00 
 207   16:00   0.51   97.4    17    3.1   315     7.7   966.1    0.00 
 207   16:10   0.48   96.1    18    3.7   307     8.2   966.1    0.00 
 207   16:20   0.45   94.6    18    2.5   322     6.7   966.1    0.00 
 207   16:30   0.41   93.8    19    2.9   304     6.5   966.1    0.00 
 207   16:40   0.38   94.9    18    2.7   301     6.3   966.1    0.00 
 207   16:50   0.35   94.9    18    3.4   296     7.6   966.1    0.00 
 207   17:00   0.31   93.4    18    2.4   309     5.6   966.1    0.00 
 207   17:10   0.28   93.3    18    2.6   298     5.6   966.1    0.00 
 207   17:20   0.25   91.5    19    2.3   309     5.6   966.1    0.00 
 207   17:30   0.22   90.4    20    2.3   317     5.6   966.1    0.00 
 207   17:40   0.19   89.8    20    2.3   309     5.7   966.1    0.00 
 207   17:50   0.16   88.8    21    1.9   312     5.0   966.1    0.00 
 207   18:00   0.13   87.6    21    1.9   334     4.2   966.1    0.00 
 207   18:10   0.09   86.8    22    1.7   301     4.0   966.1    0.00 
 207   18:20   0.04   86.2    22    1.5   307     4.5   966.1    0.00 
 207   18:30   0.03   85.4    21    2.0   281     4.3   966.1    0.00 
 207   18:40   0.02   84.1    23    1.1   307     3.3   966.1    0.00 
 207   18:50   0.01   82.9    23    1.2   305     3.0   966.1    0.00 
 207   19:00   0.01   81.8    24    0.7   307     2.1   966.1    0.00 
 207   19:10   0.00   80.5    25    0.3   296     1.8   966.1    0.00 
 207   19:20   0.00   79.2    26    0.5   350     1.7   966.1    0.00 
 207   19:30   0.00   78.3    30    0.7    15     2.4   966.1    0.00 
 207   19:40   0.00   77.8    31    0.2   161     1.0   966.1    0.00 
 207   19:50   0.00   77.3    30    0.2   165     1.0   966.5    0.00 
 207   20:00   0.00   76.9    31    1.6   129     2.7   966.5    0.00 
 207   20:10   0.00   76.5    31    1.1   135     2.6   966.5    0.00 
 207   20:20   0.00   76.7    31    0.2   140     1.2   966.8    0.00 
 207   20:30   0.00   76.1    32    1.1   289     2.0   966.8    0.00 
 207   20:40   0.00   75.5    33    0.4   268     1.3   966.8    0.00 
 207   20:50   0.00   75.1    33    0.9   294     1.5   966.8    0.00 
 207   21:00   0.00   75.1    33    1.3   275     2.6   967.2    0.00 
 207   21:10   0.00   74.7    34    1.2   253     2.1   967.2    0.00 
 207   21:20   0.00   74.4    34    0.1   238     1.0   967.2    0.00 
 207   21:30   0.00   74.2    35    0.7   133     1.5   967.2    0.00 
 207   21:40   0.00   74.2    36    0.0    73     0.5   967.2    0.00 
 207   21:50   0.00   73.7    39    0.0     0     0.0   967.2    0.00 
 207   22:00   0.00   73.3    43    0.5   294     1.5   967.2    0.00 
 207   22:10   0.00   73.0    43    0.0   288     0.5   967.2    0.00 
 207   22:20   0.00   72.9    44    0.2   195     1.2   967.2    0.00 
 207   22:30   0.00   72.7    44    0.1   287     1.2   967.2    0.00 
 207   22:40   0.00   72.1    45    1.9   278     2.8   967.2    0.00 
 207   22:50   0.00   71.9    48    0.9   275     2.3   967.2    0.00 
 207   23:00   0.00   71.7    49    0.5   171     1.5   967.5    0.00 
 207   23:10   0.00   71.9    49    0.6   159     1.5   967.5    0.00 
 207   23:20   0.00   72.0    47    1.2   148     2.6   967.5    0.00 
 207   23:30   0.00   72.2    46    0.8   259     2.3   967.5    0.00 
 207   23:40   0.00   71.9    46    1.1   281     1.9   967.5    0.00 
 207   23:50   0.00   71.8    45    0.6   151     1.3   967.2    0.00 
 208    0:00   0.00   72.1    43    0.9   158     1.8   967.2    0.00 
 208    0:10   0.00   72.7    43    0.6   213     1.5   967.2    0.00 
 208    0:20   0.00   72.6    43    1.5   285     2.7   967.2    0.00 
 208    0:30   0.00   72.1    43    1.2   203     3.1   967.2    0.00 
 208    0:40   0.00   72.4    43    0.2   316     1.9   967.2    0.00 
 208    0:50   0.00   71.7    44    1.3   264     2.4   967.2    0.00 
 208    1:00   0.00   71.4    43    1.8   117     3.5   967.2    0.00 

Return to Stunt Ranch Reserve graphs page.


Western Regional Climate Center,wrcc@dri.edu